createdAt,value
2022-12-20T00:03:41.074Z,9.20
2022-12-20T00:07:53.366Z,8.77
2022-12-20T00:12:06.819Z,8.40
2022-12-20T00:16:30.253Z,8.25
2022-12-20T00:20:42.593Z,8.52
2022-12-20T00:24:57.067Z,7.95
2022-12-20T00:29:09.648Z,8.40
2022-12-20T00:33:22.220Z,8.52
2022-12-20T00:37:34.853Z,8.85
2022-12-20T00:41:47.170Z,9.57
2022-12-20T00:46:03.037Z,8.38
2022-12-20T00:50:15.469Z,8.70
2022-12-20T00:54:27.770Z,8.38
2022-12-20T00:58:41.874Z,8.82
2022-12-20T01:02:54.289Z,8.07
2022-12-20T01:07:16.709Z,8.13
2022-12-20T01:11:31.912Z,8.85
2022-12-20T01:15:44.219Z,8.35
2022-12-20T01:19:56.567Z,8.50
2022-12-20T01:24:09.753Z,8.20
2022-12-20T01:28:22.101Z,8.55
2022-12-20T01:32:34.413Z,7.10
2022-12-20T01:36:46.752Z,8.70
2022-12-20T01:40:59.211Z,8.40
2022-12-20T01:45:26.321Z,8.93
2022-12-20T01:49:45.570Z,9.00
2022-12-20T01:58:17.932Z,8.15
2022-12-20T02:02:30.445Z,7.88
2022-12-20T02:06:42.940Z,8.27
2022-12-20T02:11:15.470Z,8.80
2022-12-20T02:15:36.858Z,8.63
2022-12-20T02:20:08.243Z,9.38
2022-12-20T02:24:54.361Z,8.93
2022-12-20T02:29:26.032Z,8.50
2022-12-20T02:33:40.152Z,7.68
2022-12-20T02:37:55.568Z,8.02
2022-12-20T02:42:14.680Z,8.50
2022-12-20T02:46:28.316Z,7.82
2022-12-20T02:50:47.492Z,8.23
2022-12-20T02:55:01.084Z,8.85
2022-12-20T02:59:18.887Z,8.18
2022-12-20T03:03:40.409Z,7.80
2022-12-20T03:07:53.292Z,8.95
2022-12-20T03:12:06.414Z,9.02
2022-12-20T03:16:19.420Z,9.15
2022-12-20T03:20:32.037Z,8.30
2022-12-20T03:24:44.346Z,8.20
2022-12-20T03:28:56.738Z,8.13
2022-12-20T03:33:13.479Z,8.63
2022-12-20T03:37:27.682Z,9.50
2022-12-20T03:41:40.101Z,7.57
2022-12-20T03:45:53.216Z,7.70
2022-12-20T03:50:07.078Z,6.90
2022-12-20T03:54:19.599Z,8.38
2022-12-20T03:58:33.003Z,8.90
2022-12-20T04:02:45.567Z,7.93
2022-12-20T04:06:58.081Z,6.80
2022-12-20T04:11:19.943Z,7.78
2022-12-20T04:15:32.307Z,7.50
2022-12-20T04:19:44.630Z,8.02
2022-12-20T04:23:58.302Z,7.63
2022-12-20T04:28:10.606Z,7.22
2022-12-20T04:32:22.900Z,8.23
2022-12-20T04:36:35.399Z,7.70
2022-12-20T04:40:50.814Z,6.88
2022-12-20T04:45:03.512Z,7.68
2022-12-20T04:49:15.989Z,7.82
2022-12-20T04:53:46.941Z,7.25
2022-12-20T04:58:05.275Z,9.02
2022-12-20T05:02:19.868Z,8.15
2022-12-20T05:06:32.283Z,7.78
2022-12-20T05:10:44.732Z,8.00
2022-12-20T05:14:57.371Z,8.93
2022-12-20T05:19:09.665Z,7.53
2022-12-20T05:23:40.385Z,7.55
2022-12-20T05:27:52.677Z,8.13
2022-12-20T05:32:05.241Z,7.93
2022-12-20T05:36:17.654Z,8.80
2022-12-20T05:40:31.924Z,7.55
2022-12-20T05:44:54.214Z,7.32
2022-12-20T05:49:06.537Z,7.25
2022-12-20T05:53:28.959Z,7.03
2022-12-20T05:57:41.322Z,6.93
2022-12-20T06:01:53.764Z,7.70
2022-12-20T06:06:13.558Z,8.02
2022-12-20T06:10:27.448Z,7.50
2022-12-20T06:14:39.835Z,6.35
2022-12-20T06:18:52.620Z,7.53
2022-12-20T06:23:05.057Z,6.47
2022-12-20T06:27:27.460Z,7.22
2022-12-20T06:31:39.797Z,7.05
2022-12-20T06:35:54.095Z,6.63
2022-12-20T06:40:07.400Z,6.25
2022-12-20T06:44:19.714Z,7.80
2022-12-20T06:48:32.047Z,7.03
2022-12-20T06:52:44.358Z,6.68
2022-12-20T06:56:56.680Z,6.10
2022-12-20T07:01:15.632Z,6.32
2022-12-20T07:05:28.499Z,8.07
2022-12-20T07:09:42.273Z,8.55
2022-12-20T07:13:58.345Z,7.57
2022-12-20T07:18:10.783Z,8.27
2022-12-20T07:22:23.126Z,6.93
2022-12-20T07:26:35.644Z,8.40
2022-12-20T07:30:48.274Z,7.68
2022-12-20T07:35:00.807Z,8.43
2022-12-20T07:39:14.022Z,7.85
2022-12-20T07:43:26.351Z,7.93
2022-12-20T07:47:38.689Z,8.48
2022-12-20T07:51:54.176Z,6.88
2022-12-20T07:56:09.975Z,8.18
2022-12-20T08:00:22.397Z,7.60
2022-12-20T08:04:35.183Z,8.82
2022-12-20T08:08:52.461Z,8.40
2022-12-20T08:13:07.006Z,8.23
2022-12-20T08:17:19.669Z,8.30
2022-12-20T08:21:32.559Z,8.25
2022-12-20T08:25:45.427Z,8.07
2022-12-20T08:30:08.281Z,9.13
2022-12-20T08:34:21.138Z,9.05
2022-12-20T08:38:34.337Z,9.52
2022-12-20T08:42:46.736Z,10.30
2022-12-20T08:46:59.055Z,9.18
2022-12-20T08:51:13.255Z,8.57
2022-12-20T08:55:29.469Z,9.80
2022-12-20T08:59:42.704Z,8.13
2022-12-20T09:03:55.113Z,9.10
2022-12-20T09:08:07.503Z,9.25
2022-12-20T09:12:21.917Z,8.93
2022-12-20T09:16:34.324Z,9.45
2022-12-20T09:20:46.627Z,8.98
2022-12-20T09:24:59.318Z,9.73
2022-12-20T09:29:11.606Z,9.30
2022-12-20T09:33:23.962Z,8.40
2022-12-20T09:37:36.440Z,8.38
2022-12-20T09:41:59.994Z,8.95
2022-12-20T09:46:16.145Z,9.20
2022-12-20T09:51:08.404Z,8.13
2022-12-20T09:55:31.796Z,7.82
2022-12-20T09:59:49.461Z,8.57
2022-12-20T10:04:06.808Z,7.95
2022-12-20T10:08:36.370Z,8.23
2022-12-20T10:13:13.119Z,7.50
2022-12-20T10:17:57.219Z,8.45
2022-12-20T10:22:18.493Z,7.78
2022-12-20T10:26:33.281Z,7.60
2022-12-20T10:30:51.536Z,7.88
2022-12-20T10:35:12.800Z,8.45
2022-12-20T10:39:42.239Z,8.93
2022-12-20T10:44:16.407Z,8.70
2022-12-20T10:48:34.751Z,8.40
2022-12-20T10:53:10.919Z,8.00
2022-12-20T10:57:27.708Z,6.95
2022-12-20T11:01:45.729Z,7.80
2022-12-20T11:06:01.048Z,9.05
2022-12-20T11:10:24.120Z,9.48
2022-12-20T11:14:39.828Z,9.50
2022-12-20T11:18:57.125Z,8.30
2022-12-20T11:23:26.044Z,9.20
2022-12-20T11:27:51.229Z,9.65
2022-12-20T11:32:25.689Z,9.48
2022-12-20T11:37:02.703Z,9.43
2022-12-20T11:41:20.981Z,9.75
2022-12-20T11:45:39.524Z,10.27
2022-12-20T11:50:19.775Z,10.00
2022-12-20T11:54:36.322Z,10.13
2022-12-20T11:58:55.233Z,9.68
2022-12-20T12:03:22.598Z,9.60
2022-12-20T12:07:37.565Z,9.02
2022-12-20T12:12:07.880Z,9.50
2022-12-20T12:16:29.028Z,8.55
2022-12-20T12:20:53.724Z,8.95
2022-12-20T12:25:14.889Z,9.32
2022-12-20T12:29:30.439Z,9.07
2022-12-20T12:34:03.840Z,8.88
2022-12-20T12:38:38.140Z,8.98
2022-12-20T12:43:12.118Z,9.40
2022-12-20T12:47:35.796Z,9.20
2022-12-20T12:51:56.454Z,9.65
2022-12-20T12:56:43.108Z,9.55
2022-12-20T13:01:00.562Z,9.70
2022-12-20T13:05:19.393Z,10.70
2022-12-20T13:09:34.784Z,11.57
2022-12-20T13:13:48.509Z,10.95
2022-12-20T13:18:12.778Z,12.05
2022-12-20T13:22:27.030Z,12.27
2022-12-20T13:26:53.846Z,11.77
2022-12-20T13:31:06.111Z,12.15
2022-12-20T13:35:26.749Z,12.15
2022-12-20T13:39:39.077Z,12.40
2022-12-20T13:43:52.926Z,12.63
2022-12-20T13:48:11.638Z,11.63
2022-12-20T13:52:38.970Z,11.80
2022-12-20T13:56:53.215Z,10.55
2022-12-20T14:01:13.765Z,10.85
2022-12-20T14:05:32.181Z,11.57
2022-12-20T14:09:55.582Z,13.25
2022-12-20T14:14:14.845Z,12.07
2022-12-20T14:22:57.888Z,12.68
2022-12-20T14:27:15.144Z,12.65
2022-12-20T14:31:34.676Z,13.60
2022-12-20T14:35:49.585Z,14.90
2022-12-20T14:40:10.794Z,13.15
2022-12-20T14:44:33.957Z,13.35
2022-12-20T14:48:46.919Z,14.38
2022-12-20T14:53:00.283Z,14.45
2022-12-20T14:57:25.394Z,12.75
2022-12-20T15:01:43.591Z,12.57
2022-12-20T15:05:58.903Z,13.65
2022-12-20T15:10:11.218Z,12.95
2022-12-20T15:14:41.518Z,12.63
2022-12-20T15:18:56.608Z,13.77
2022-12-20T15:23:29.810Z,14.10
2022-12-20T15:27:42.078Z,13.00
2022-12-20T15:32:05.030Z,13.98
2022-12-20T15:36:21.210Z,14.90
2022-12-20T15:40:38.210Z,13.40
2022-12-20T15:44:50.802Z,12.95
2022-12-20T15:49:03.258Z,12.63
2022-12-20T15:53:17.486Z,11.77
2022-12-20T15:57:39.768Z,14.70
2022-12-20T16:02:02.617Z,13.20
2022-12-20T16:06:15.506Z,14.73
2022-12-20T16:10:27.816Z,12.55
2022-12-20T16:14:40.134Z,13.10
2022-12-20T16:18:54.440Z,14.15
2022-12-20T16:23:08.401Z,13.57
2022-12-20T16:27:21.230Z,14.32
2022-12-20T16:31:39.194Z,14.52
2022-12-20T16:36:00.349Z,14.98
2022-12-20T16:40:16.278Z,14.98
2022-12-20T16:44:28.572Z,15.38
2022-12-20T16:48:42.420Z,14.63
2022-12-20T16:52:55.242Z,14.75
2022-12-20T16:57:07.546Z,14.73
2022-12-20T17:01:36.425Z,13.65
2022-12-20T17:05:48.947Z,13.32
2022-12-20T17:10:01.229Z,13.48
2022-12-20T17:14:14.350Z,14.70
2022-12-20T17:18:26.780Z,15.02
2022-12-20T17:22:39.115Z,14.18
2022-12-20T17:26:51.696Z,15.57
2022-12-20T17:31:08.085Z,12.57
2022-12-20T17:35:24.698Z,14.20
2022-12-20T17:39:36.964Z,14.63
2022-12-20T17:43:49.320Z,13.68
2022-12-20T17:48:01.624Z,13.38
2022-12-20T17:52:15.442Z,13.15
2022-12-20T17:56:34.091Z,13.77
2022-12-20T18:00:46.472Z,14.05
2022-12-20T18:04:58.847Z,14.85
2022-12-20T18:09:19.841Z,14.15
2022-12-20T18:13:33.264Z,14.30
2022-12-20T18:17:45.937Z,13.48
2022-12-20T18:26:24.099Z,13.00
2022-12-20T18:30:37.174Z,12.80
2022-12-20T18:34:49.667Z,13.93
2022-12-20T18:39:03.652Z,13.75
2022-12-20T18:43:17.082Z,15.48
2022-12-20T18:47:33.021Z,14.38
2022-12-20T18:51:45.295Z,15.70
2022-12-20T18:55:57.731Z,15.38
2022-12-20T19:00:10.583Z,14.27
2022-12-20T19:04:25.201Z,13.60
2022-12-20T19:08:38.639Z,14.25
2022-12-20T19:12:51.475Z,14.65
2022-12-20T19:17:03.940Z,15.57
2022-12-20T19:21:19.692Z,14.88
2022-12-20T19:25:36.673Z,14.98
2022-12-20T19:29:48.971Z,14.75
2022-12-20T19:34:08.269Z,15.68
2022-12-20T19:42:32.820Z,14.20
2022-12-20T19:46:45.219Z,14.75
2022-12-20T19:51:14.511Z,15.15
2022-12-20T19:59:55.569Z,12.23
2022-12-20T20:04:10.750Z,14.00
2022-12-20T20:08:25.925Z,14.68
2022-12-20T20:12:39.130Z,14.35
2022-12-20T20:16:51.552Z,14.35
2022-12-20T20:21:13.229Z,15.15
2022-12-20T20:25:25.503Z,15.25
2022-12-20T20:29:37.827Z,14.07
2022-12-20T20:33:50.889Z,13.40
2022-12-20T20:38:03.207Z,14.45
2022-12-20T20:42:23.032Z,13.55
2022-12-20T20:46:35.635Z,14.85
2022-12-20T20:50:48.037Z,13.00
2022-12-20T20:55:00.355Z,14.32
2022-12-20T20:59:17.595Z,12.27
2022-12-20T21:03:41.276Z,13.82
2022-12-20T21:07:54.388Z,13.77
2022-12-20T21:12:06.904Z,15.48
2022-12-20T21:16:23.162Z,13.60
2022-12-20T21:20:36.746Z,14.20
2022-12-20T21:24:49.013Z,14.52
2022-12-20T21:29:01.924Z,14.18
2022-12-20T21:33:14.224Z,13.98
2022-12-20T21:37:27.309Z,14.00
2022-12-20T21:41:40.534Z,17.33
2022-12-20T21:45:52.833Z,16.40
2022-12-20T21:50:06.284Z,15.00
2022-12-20T21:54:18.576Z,15.32
2022-12-20T21:58:31.831Z,14.35
2022-12-20T22:02:44.404Z,15.55
2022-12-20T22:06:56.782Z,15.52
2022-12-20T22:11:11.548Z,13.65
2022-12-20T22:15:23.987Z,14.85
2022-12-20T22:19:37.855Z,14.00
2022-12-20T22:23:50.835Z,14.43
2022-12-20T22:28:03.413Z,14.82
2022-12-20T22:32:15.832Z,14.73
2022-12-20T22:36:29.265Z,13.77
2022-12-20T22:40:41.573Z,13.55
2022-12-20T22:44:54.863Z,14.75
2022-12-20T22:49:07.168Z,14.55
2022-12-20T22:53:19.494Z,14.98
2022-12-20T22:57:35.466Z,13.68
2022-12-20T23:01:47.942Z,13.27
2022-12-20T23:06:02.800Z,14.75
2022-12-20T23:10:36.771Z,11.68
2022-12-20T23:15:07.622Z,14.13
2022-12-20T23:19:20.031Z,12.82
2022-12-20T23:23:33.008Z,14.80
2022-12-20T23:27:48.355Z,15.20
2022-12-20T23:32:00.735Z,13.27
2022-12-20T23:36:13.317Z,13.23
2022-12-20T23:40:25.588Z,13.13
2022-12-20T23:44:39.431Z,13.07
2022-12-20T23:48:57.622Z,12.57
2022-12-20T23:53:10.507Z,12.43
2022-12-20T23:57:22.828Z,11.95
